sensor_id;sensor_type;location;lat;lon;timestamp;temperature;humidity
52495;DHT22;38405;53.212;5.660;2022-10-15T00:00:33;12.90;99.90
52495;DHT22;38405;53.212;5.660;2022-10-15T00:02:59;12.80;99.90
52495;DHT22;38405;53.212;5.660;2022-10-15T00:05:25;12.90;99.90
52495;DHT22;38405;53.212;5.660;2022-10-15T00:07:51;12.90;99.90
52495;DHT22;38405;53.212;5.660;2022-10-15T00:10:17;12.90;99.90
52495;DHT22;38405;53.212;5.660;2022-10-15T00:12:43;12.90;99.90
52495;DHT22;38405;53.212;5.660;2022-10-15T00:15:09;12.90;99.90
52495;DHT22;38405;53.212;5.660;2022-10-15T00:17:36;12.90;99.90
52495;DHT22;38405;53.212;5.660;2022-10-15T00:20:04;12.90;99.90
52495;DHT22;38405;53.212;5.660;2022-10-15T00:22:30;12.90;99.90
52495;DHT22;38405;53.212;5.660;2022-10-15T00:24:56;12.90;99.90
52495;DHT22;38405;53.212;5.660;2022-10-15T00:27:21;12.90;99.90
52495;DHT22;38405;53.212;5.660;2022-10-15T00:29:47;12.90;99.90
52495;DHT22;38405;53.212;5.660;2022-10-15T00:32:12;13.00;99.90
52495;DHT22;38405;53.212;5.660;2022-10-15T00:34:39;13.00;99.90
52495;DHT22;38405;53.212;5.660;2022-10-15T00:37:05;12.90;99.90
52495;DHT22;38405;53.212;5.660;2022-10-15T00:39:31;12.90;99.90
52495;DHT22;38405;53.212;5.660;2022-10-15T00:41:57;12.80;99.90
52495;DHT22;38405;53.212;5.660;2022-10-15T00:46:50;12.90;99.90
52495;DHT22;38405;53.212;5.660;2022-10-15T00:49:27;12.90;99.90
52495;DHT22;38405;53.212;5.660;2022-10-15T00:52:22;12.80;99.90
52495;DHT22;38405;53.212;5.660;2022-10-15T00:54:57;12.80;99.90
52495;DHT22;38405;53.212;5.660;2022-10-15T00:57:24;12.90;99.90
52495;DHT22;38405;53.212;5.660;2022-10-15T00:59:55;12.90;99.90
52495;DHT22;38405;53.212;5.660;2022-10-15T01:02:22;12.90;99.90
52495;DHT22;38405;53.212;5.660;2022-10-15T01:04:48;13.00;99.90
52495;DHT22;38405;53.212;5.660;2022-10-15T01:07:15;12.90;99.90
52495;DHT22;38405;53.212;5.660;2022-10-15T01:09:40;13.00;99.90
52495;DHT22;38405;53.212;5.660;2022-10-15T01:12:19;13.10;99.90
52495;DHT22;38405;53.212;5.660;2022-10-15T01:15:26;13.10;99.90
52495;DHT22;38405;53.212;5.660;2022-10-15T01:17:58;12.90;99.90
52495;DHT22;38405;53.212;5.660;2022-10-15T01:32:16;12.90;99.90
52495;DHT22;38405;53.212;5.660;2022-10-15T01:40:54;12.80;99.90
52495;DHT22;38405;53.212;5.660;2022-10-15T01:43:24;12.80;99.90
52495;DHT22;38405;53.212;5.660;2022-10-15T01:45:56;12.90;99.90
52495;DHT22;38405;53.212;5.660;2022-10-15T01:48:25;12.80;99.90
52495;DHT22;38405;53.212;5.660;2022-10-15T01:50:54;12.90;99.90
52495;DHT22;38405;53.212;5.660;2022-10-15T01:53:22;12.90;99.90
52495;DHT22;38405;53.212;5.660;2022-10-15T01:55:53;12.90;99.90
52495;DHT22;38405;53.212;5.660;2022-10-15T01:58:20;12.90;99.90
52495;DHT22;38405;53.212;5.660;2022-10-15T02:00:48;12.80;99.90
52495;DHT22;38405;53.212;5.660;2022-10-15T02:03:15;12.80;99.90
52495;DHT22;38405;53.212;5.660;2022-10-15T02:05:47;12.80;99.90
52495;DHT22;38405;53.212;5.660;2022-10-15T02:08:37;12.90;99.90
52495;DHT22;38405;53.212;5.660;2022-10-15T02:11:11;12.90;99.90
52495;DHT22;38405;53.212;5.660;2022-10-15T02:13:59;12.90;99.90
52495;DHT22;38405;53.212;5.660;2022-10-15T02:22:07;12.90;99.90
52495;DHT22;38405;53.212;5.660;2022-10-15T02:24:47;12.90;99.90
52495;DHT22;38405;53.212;5.660;2022-10-15T02:27:15;12.90;99.90
52495;DHT22;38405;53.212;5.660;2022-10-15T02:29:43;12.90;99.90
52495;DHT22;38405;53.212;5.660;2022-10-15T02:32:11;12.90;99.90
52495;DHT22;38405;53.212;5.660;2022-10-15T02:34:40;12.90;99.90
52495;DHT22;38405;53.212;5.660;2022-10-15T02:37:07;12.90;99.90
52495;DHT22;38405;53.212;5.660;2022-10-15T02:39:33;12.90;99.90
52495;DHT22;38405;53.212;5.660;2022-10-15T02:41:59;12.90;99.90
52495;DHT22;38405;53.212;5.660;2022-10-15T02:44:25;12.90;99.90
52495;DHT22;38405;53.212;5.660;2022-10-15T02:46:51;12.90;99.90
52495;DHT22;38405;53.212;5.660;2022-10-15T02:49:17;13.00;99.90
52495;DHT22;38405;53.212;5.660;2022-10-15T02:51:43;12.90;99.90
52495;DHT22;38405;53.212;5.660;2022-10-15T02:54:08;12.90;99.90
52495;DHT22;38405;53.212;5.660;2022-10-15T02:56:34;12.90;99.90
52495;DHT22;38405;53.212;5.660;2022-10-15T02:59:03;13.10;99.90
52495;DHT22;38405;53.212;5.660;2022-10-15T03:01:30;12.90;99.90
52495;DHT22;38405;53.212;5.660;2022-10-15T03:03:56;12.90;99.90
52495;DHT22;38405;53.212;5.660;2022-10-15T03:06:22;12.80;99.90
52495;DHT22;38405;53.212;5.660;2022-10-15T03:08:48;12.90;99.90
52495;DHT22;38405;53.212;5.660;2022-10-15T03:11:14;13.00;99.90
52495;DHT22;38405;53.212;5.660;2022-10-15T03:13:39;12.80;99.90
52495;DHT22;38405;53.212;5.660;2022-10-15T03:16:07;12.90;99.90
52495;DHT22;38405;53.212;5.660;2022-10-15T03:18:34;12.80;99.90
52495;DHT22;38405;53.212;5.660;2022-10-15T03:20:59;12.90;99.90
52495;DHT22;38405;53.212;5.660;2022-10-15T03:23:26;12.80;99.90
52495;DHT22;38405;53.212;5.660;2022-10-15T03:25:52;13.00;99.90
52495;DHT22;38405;53.212;5.660;2022-10-15T03:28:19;12.80;99.90
52495;DHT22;38405;53.212;5.660;2022-10-15T03:30:45;12.70;99.90
52495;DHT22;38405;53.212;5.660;2022-10-15T03:33:11;12.70;99.90
52495;DHT22;38405;53.212;5.660;2022-10-15T03:35:37;12.70;99.90
52495;DHT22;38405;53.212;5.660;2022-10-15T03:38:03;12.70;99.90
52495;DHT22;38405;53.212;5.660;2022-10-15T03:40:29;12.60;99.90
52495;DHT22;38405;53.212;5.660;2022-10-15T03:42:54;12.60;99.90
52495;DHT22;38405;53.212;5.660;2022-10-15T03:45:21;12.60;99.90
52495;DHT22;38405;53.212;5.660;2022-10-15T03:47:47;12.60;99.90
52495;DHT22;38405;53.212;5.660;2022-10-15T03:50:13;12.60;99.90
52495;DHT22;38405;53.212;5.660;2022-10-15T03:52:39;12.60;99.90
52495;DHT22;38405;53.212;5.660;2022-10-15T03:55:06;12.60;99.90
52495;DHT22;38405;53.212;5.660;2022-10-15T03:57:32;12.50;99.90
52495;DHT22;38405;53.212;5.660;2022-10-15T03:59:58;12.60;99.90
52495;DHT22;38405;53.212;5.660;2022-10-15T04:02:24;12.60;99.90
52495;DHT22;38405;53.212;5.660;2022-10-15T04:04:53;12.50;99.90
52495;DHT22;38405;53.212;5.660;2022-10-15T04:07:20;12.60;99.90
52495;DHT22;38405;53.212;5.660;2022-10-15T04:09:46;12.60;99.90
52495;DHT22;38405;53.212;5.660;2022-10-15T04:12:12;12.50;99.90
52495;DHT22;38405;53.212;5.660;2022-10-15T04:14:38;12.50;99.90
52495;DHT22;38405;53.212;5.660;2022-10-15T04:17:04;12.60;99.90
52495;DHT22;38405;53.212;5.660;2022-10-15T04:19:30;12.50;99.90
52495;DHT22;38405;53.212;5.660;2022-10-15T04:21:55;12.50;99.90
52495;DHT22;38405;53.212;5.660;2022-10-15T04:24:21;12.50;99.90
52495;DHT22;38405;53.212;5.660;2022-10-15T04:26:47;12.70;99.90
52495;DHT22;38405;53.212;5.660;2022-10-15T04:29:12;12.50;99.90
52495;DHT22;38405;53.212;5.660;2022-10-15T04:31:38;12.50;99.90
52495;DHT22;38405;53.212;5.660;2022-10-15T04:34:04;12.50;99.90
52495;DHT22;38405;53.212;5.660;2022-10-15T04:36:30;12.50;99.90
52495;DHT22;38405;53.212;5.660;2022-10-15T04:38:55;12.50;99.90
52495;DHT22;38405;53.212;5.660;2022-10-15T04:41:21;12.50;99.90
52495;DHT22;38405;53.212;5.660;2022-10-15T04:43:46;12.40;99.90
52495;DHT22;38405;53.212;5.660;2022-10-15T04:46:12;12.40;99.90
52495;DHT22;38405;53.212;5.660;2022-10-15T04:48:38;12.30;99.90
52495;DHT22;38405;53.212;5.660;2022-10-15T04:51:06;12.30;99.90
52495;DHT22;38405;53.212;5.660;2022-10-15T04:53:32;12.40;99.90
52495;DHT22;38405;53.212;5.660;2022-10-15T04:56:03;12.20;99.90
52495;DHT22;38405;53.212;5.660;2022-10-15T04:58:31;12.30;99.90
52495;DHT22;38405;53.212;5.660;2022-10-15T05:01:01;12.20;99.90
52495;DHT22;38405;53.212;5.660;2022-10-15T05:03:28;12.20;99.90
52495;DHT22;38405;53.212;5.660;2022-10-15T05:05:58;12.20;99.90
52495;DHT22;38405;53.212;5.660;2022-10-15T05:08:24;12.20;99.90
52495;DHT22;38405;53.212;5.660;2022-10-15T05:10:49;12.30;99.90
52495;DHT22;38405;53.212;5.660;2022-10-15T05:13:15;12.40;99.90
52495;DHT22;38405;53.212;5.660;2022-10-15T05:15:40;12.30;99.90
52495;DHT22;38405;53.212;5.660;2022-10-15T05:18:06;12.30;99.90
52495;DHT22;38405;53.212;5.660;2022-10-15T05:20:32;12.30;99.90
52495;DHT22;38405;53.212;5.660;2022-10-15T05:22:57;12.30;99.90
52495;DHT22;38405;53.212;5.660;2022-10-15T05:25:23;12.60;99.90
52495;DHT22;38405;53.212;5.660;2022-10-15T05:27:48;12.40;99.90
52495;DHT22;38405;53.212;5.660;2022-10-15T05:30:14;12.50;99.90
52495;DHT22;38405;53.212;5.660;2022-10-15T05:32:40;12.40;99.90
52495;DHT22;38405;53.212;5.660;2022-10-15T05:35:05;12.40;99.90
52495;DHT22;38405;53.212;5.660;2022-10-15T05:37:31;12.40;99.90
52495;DHT22;38405;53.212;5.660;2022-10-15T05:39:57;12.50;99.90
52495;DHT22;38405;53.212;5.660;2022-10-15T05:42:22;12.50;99.90
52495;DHT22;38405;53.212;5.660;2022-10-15T05:44:48;12.50;99.90
52495;DHT22;38405;53.212;5.660;2022-10-15T05:47:13;12.50;99.90
52495;DHT22;38405;53.212;5.660;2022-10-15T05:49:39;12.50;99.90
52495;DHT22;38405;53.212;5.660;2022-10-15T05:52:05;12.50;99.90
52495;DHT22;38405;53.212;5.660;2022-10-15T05:54:30;12.50;99.90
52495;DHT22;38405;53.212;5.660;2022-10-15T05:56:56;12.50;99.90
52495;DHT22;38405;53.212;5.660;2022-10-15T05:59:22;12.40;99.90
52495;DHT22;38405;53.212;5.660;2022-10-15T06:01:47;12.50;99.90
52495;DHT22;38405;53.212;5.660;2022-10-15T06:04:13;12.60;99.90
52495;DHT22;38405;53.212;5.660;2022-10-15T06:06:40;12.40;99.90
52495;DHT22;38405;53.212;5.660;2022-10-15T06:09:05;12.40;99.90
52495;DHT22;38405;53.212;5.660;2022-10-15T06:11:31;12.40;99.90
52495;DHT22;38405;53.212;5.660;2022-10-15T06:13:57;12.50;99.90
52495;DHT22;38405;53.212;5.660;2022-10-15T06:16:22;12.40;99.90
52495;DHT22;38405;53.212;5.660;2022-10-15T06:18:48;12.50;99.90
52495;DHT22;38405;53.212;5.660;2022-10-15T06:21:14;12.50;99.90
52495;DHT22;38405;53.212;5.660;2022-10-15T06:23:39;12.40;99.90
52495;DHT22;38405;53.212;5.660;2022-10-15T06:26:06;12.40;99.90
52495;DHT22;38405;53.212;5.660;2022-10-15T06:28:33;12.40;99.90
52495;DHT22;38405;53.212;5.660;2022-10-15T06:31:00;12.40;99.90
52495;DHT22;38405;53.212;5.660;2022-10-15T06:33:26;12.60;99.90
52495;DHT22;38405;53.212;5.660;2022-10-15T06:35:52;12.40;99.90
52495;DHT22;38405;53.212;5.660;2022-10-15T06:38:18;12.50;99.90
52495;DHT22;38405;53.212;5.660;2022-10-15T06:40:43;12.50;99.90
52495;DHT22;38405;53.212;5.660;2022-10-15T06:43:10;12.50;99.90
52495;DHT22;38405;53.212;5.660;2022-10-15T06:45:37;12.40;99.90
52495;DHT22;38405;53.212;5.660;2022-10-15T06:48:04;12.40;99.90
52495;DHT22;38405;53.212;5.660;2022-10-15T06:50:31;12.40;99.90
52495;DHT22;38405;53.212;5.660;2022-10-15T06:52:57;12.40;99.90
52495;DHT22;38405;53.212;5.660;2022-10-15T06:55:23;12.40;99.90
52495;DHT22;38405;53.212;5.660;2022-10-15T06:57:48;12.40;99.90
52495;DHT22;38405;53.212;5.660;2022-10-15T07:00:15;12.40;99.90
52495;DHT22;38405;53.212;5.660;2022-10-15T07:02:41;12.60;99.90
52495;DHT22;38405;53.212;5.660;2022-10-15T07:05:07;12.50;99.90
52495;DHT22;38405;53.212;5.660;2022-10-15T07:07:33;12.50;99.90
52495;DHT22;38405;53.212;5.660;2022-10-15T07:09:59;12.70;99.90
52495;DHT22;38405;53.212;5.660;2022-10-15T07:12:24;12.80;99.90
52495;DHT22;38405;53.212;5.660;2022-10-15T07:14:50;13.00;99.90
52495;DHT22;38405;53.212;5.660;2022-10-15T07:17:16;12.70;99.90
52495;DHT22;38405;53.212;5.660;2022-10-15T07:19:41;12.90;99.90
52495;DHT22;38405;53.212;5.660;2022-10-15T07:22:08;12.70;99.90
52495;DHT22;38405;53.212;5.660;2022-10-15T07:24:34;12.90;99.90
52495;DHT22;38405;53.212;5.660;2022-10-15T07:27:00;12.90;99.90
52495;DHT22;38405;53.212;5.660;2022-10-15T07:29:25;12.90;99.90
52495;DHT22;38405;53.212;5.660;2022-10-15T07:31:51;13.00;99.90
52495;DHT22;38405;53.212;5.660;2022-10-15T07:34:17;13.10;99.90
52495;DHT22;38405;53.212;5.660;2022-10-15T07:36:42;13.10;99.90
52495;DHT22;38405;53.212;5.660;2022-10-15T07:39:08;13.00;99.90
52495;DHT22;38405;53.212;5.660;2022-10-15T07:41:34;13.10;99.90
52495;DHT22;38405;53.212;5.660;2022-10-15T07:44:00;13.10;99.90
52495;DHT22;38405;53.212;5.660;2022-10-15T07:46:25;13.10;99.90
52495;DHT22;38405;53.212;5.660;2022-10-15T07:48:51;13.10;99.90
52495;DHT22;38405;53.212;5.660;2022-10-15T07:51:17;13.10;99.90
52495;DHT22;38405;53.212;5.660;2022-10-15T07:53:42;13.30;99.90
52495;DHT22;38405;53.212;5.660;2022-10-15T07:56:14;13.20;99.90
52495;DHT22;38405;53.212;5.660;2022-10-15T07:58:40;13.10;99.90
52495;DHT22;38405;53.212;5.660;2022-10-15T08:01:07;13.20;99.90
52495;DHT22;38405;53.212;5.660;2022-10-15T08:03:34;13.20;99.90
52495;DHT22;38405;53.212;5.660;2022-10-15T08:06:01;13.20;99.90
52495;DHT22;38405;53.212;5.660;2022-10-15T08:08:28;13.20;99.90
52495;DHT22;38405;53.212;5.660;2022-10-15T08:10:54;13.20;99.90
52495;DHT22;38405;53.212;5.660;2022-10-15T08:13:19;13.20;99.90
52495;DHT22;38405;53.212;5.660;2022-10-15T08:15:46;13.30;99.90
52495;DHT22;38405;53.212;5.660;2022-10-15T08:18:11;13.30;99.90
52495;DHT22;38405;53.212;5.660;2022-10-15T08:20:37;13.30;99.90
52495;DHT22;38405;53.212;5.660;2022-10-15T08:23:04;13.30;99.90
52495;DHT22;38405;53.212;5.660;2022-10-15T08:25:30;13.40;99.90
52495;DHT22;38405;53.212;5.660;2022-10-15T08:27:57;13.30;99.90
52495;DHT22;38405;53.212;5.660;2022-10-15T08:30:22;13.30;99.90
52495;DHT22;38405;53.212;5.660;2022-10-15T08:32:48;13.40;99.90
52495;DHT22;38405;53.212;5.660;2022-10-15T08:35:14;13.40;99.90
52495;DHT22;38405;53.212;5.660;2022-10-15T08:37:39;13.40;99.90
52495;DHT22;38405;53.212;5.660;2022-10-15T08:40:05;13.30;99.90
52495;DHT22;38405;53.212;5.660;2022-10-15T08:42:40;13.40;99.90
52495;DHT22;38405;53.212;5.660;2022-10-15T08:45:17;13.50;99.90
52495;DHT22;38405;53.212;5.660;2022-10-15T08:47:57;13.50;99.90
52495;DHT22;38405;53.212;5.660;2022-10-15T08:50:34;13.50;99.90
52495;DHT22;38405;53.212;5.660;2022-10-15T08:53:00;13.50;99.90
52495;DHT22;38405;53.212;5.660;2022-10-15T08:55:30;13.60;99.90
52495;DHT22;38405;53.212;5.660;2022-10-15T09:00:43;13.60;99.90
52495;DHT22;38405;53.212;5.660;2022-10-15T09:14:13;13.70;99.90
52495;DHT22;38405;53.212;5.660;2022-10-15T09:16:40;13.70;99.90
52495;DHT22;38405;53.212;5.660;2022-10-15T09:19:19;13.80;99.90
52495;DHT22;38405;53.212;5.660;2022-10-15T09:21:47;13.80;99.90
52495;DHT22;38405;53.212;5.660;2022-10-15T09:24:27;13.90;99.90
52495;DHT22;38405;53.212;5.660;2022-10-15T09:29:56;13.90;99.90
52495;DHT22;38405;53.212;5.660;2022-10-15T09:32:34;14.00;99.90
52495;DHT22;38405;53.212;5.660;2022-10-15T09:35:25;14.00;99.90
52495;DHT22;38405;53.212;5.660;2022-10-15T09:38:00;14.10;99.90
52495;DHT22;38405;53.212;5.660;2022-10-15T09:43:35;13.90;99.90
52495;DHT22;38405;53.212;5.660;2022-10-15T09:46:03;13.80;99.90
52495;DHT22;38405;53.212;5.660;2022-10-15T09:48:39;13.70;99.90
52495;DHT22;38405;53.212;5.660;2022-10-15T09:51:15;13.80;99.90
52495;DHT22;38405;53.212;5.660;2022-10-15T09:53:59;13.80;99.90
52495;DHT22;38405;53.212;5.660;2022-10-15T09:56:32;13.80;99.90
52495;DHT22;38405;53.212;5.660;2022-10-15T09:59:00;13.80;99.90
52495;DHT22;38405;53.212;5.660;2022-10-15T10:01:31;13.90;99.90
52495;DHT22;38405;53.212;5.660;2022-10-15T10:04:12;13.80;99.90
52495;DHT22;38405;53.212;5.660;2022-10-15T10:06:50;13.90;99.90
52495;DHT22;38405;53.212;5.660;2022-10-15T10:09:38;14.00;99.90
52495;DHT22;38405;53.212;5.660;2022-10-15T10:12:20;14.10;99.90
52495;DHT22;38405;53.212;5.660;2022-10-15T10:14:54;14.20;99.90
52495;DHT22;38405;53.212;5.660;2022-10-15T10:17:22;14.40;99.90
52495;DHT22;38405;53.212;5.660;2022-10-15T10:22:45;14.40;99.90
52495;DHT22;38405;53.212;5.660;2022-10-15T10:25:39;14.50;99.90
52495;DHT22;38405;53.212;5.660;2022-10-15T10:33:59;14.30;99.90
52495;DHT22;38405;53.212;5.660;2022-10-15T10:36:29;14.30;99.90
52495;DHT22;38405;53.212;5.660;2022-10-15T10:47:22;14.30;99.90
52495;DHT22;38405;53.212;5.660;2022-10-15T10:49:52;14.40;99.90
52495;DHT22;38405;53.212;5.660;2022-10-15T10:52:22;14.30;99.90
52495;DHT22;38405;53.212;5.660;2022-10-15T10:57:27;14.50;99.90
52495;DHT22;38405;53.212;5.660;2022-10-15T10:59:55;14.60;99.90
52495;DHT22;38405;53.212;5.660;2022-10-15T11:02:21;14.70;99.90
52495;DHT22;38405;53.212;5.660;2022-10-15T11:04:47;14.90;99.90
52495;DHT22;38405;53.212;5.660;2022-10-15T11:07:48;15.10;99.90
52495;DHT22;38405;53.212;5.660;2022-10-15T11:13:33;15.40;99.90
52495;DHT22;38405;53.212;5.660;2022-10-15T11:16:53;15.40;99.90
52495;DHT22;38405;53.212;5.660;2022-10-15T11:22:03;15.80;99.90
52495;DHT22;38405;53.212;5.660;2022-10-15T11:30:04;16.40;99.90
52495;DHT22;38405;53.212;5.660;2022-10-15T11:37:58;16.40;99.90
52495;DHT22;38405;53.212;5.660;2022-10-15T11:47:00;16.10;99.90
52495;DHT22;38405;53.212;5.660;2022-10-15T11:49:13;16.00;99.90
52495;DHT22;38405;53.212;5.660;2022-10-15T11:52:02;15.90;99.90
52495;DHT22;38405;53.212;5.660;2022-10-15T11:57:22;16.00;99.90
52495;DHT22;38405;53.212;5.660;2022-10-15T11:59:57;16.10;99.90
52495;DHT22;38405;53.212;5.660;2022-10-15T12:02:36;16.10;99.90
52495;DHT22;38405;53.212;5.660;2022-10-15T12:05:17;16.20;99.90
52495;DHT22;38405;53.212;5.660;2022-10-15T12:07:48;16.30;99.90
52495;DHT22;38405;53.212;5.660;2022-10-15T12:10:19;16.40;99.90
52495;DHT22;38405;53.212;5.660;2022-10-15T12:24:04;16.50;99.90
52495;DHT22;38405;53.212;5.660;2022-10-15T12:26:35;16.40;99.90
52495;DHT22;38405;53.212;5.660;2022-10-15T12:29:04;16.40;99.90
52495;DHT22;38405;53.212;5.660;2022-10-15T12:31:50;16.30;99.90
52495;DHT22;38405;53.212;5.660;2022-10-15T12:34:27;16.40;99.90
52495;DHT22;38405;53.212;5.660;2022-10-15T12:36:59;16.30;99.90
52495;DHT22;38405;53.212;5.660;2022-10-15T12:39:26;16.30;99.90
52495;DHT22;38405;53.212;5.660;2022-10-15T12:41:52;16.20;99.90
52495;DHT22;38405;53.212;5.660;2022-10-15T12:44:24;16.20;99.90
52495;DHT22;38405;53.212;5.660;2022-10-15T12:46:52;16.20;99.90
52495;DHT22;38405;53.212;5.660;2022-10-15T12:51:55;16.30;99.90
52495;DHT22;38405;53.212;5.660;2022-10-15T12:54:40;16.40;99.90
52495;DHT22;38405;53.212;5.660;2022-10-15T12:59:57;16.10;99.90
52495;DHT22;38405;53.212;5.660;2022-10-15T13:02:40;16.00;99.90
52495;DHT22;38405;53.212;5.660;2022-10-15T13:05:22;15.90;99.90
52495;DHT22;38405;53.212;5.660;2022-10-15T13:07:48;16.00;99.90
52495;DHT22;38405;53.212;5.660;2022-10-15T13:10:22;15.60;99.90
52495;DHT22;38405;53.212;5.660;2022-10-15T13:12:55;15.60;99.90
52495;DHT22;38405;53.212;5.660;2022-10-15T13:15:25;15.40;99.90
52495;DHT22;38405;53.212;5.660;2022-10-15T13:17:55;15.30;99.90
52495;DHT22;38405;53.212;5.660;2022-10-15T13:20:38;15.40;99.90
52495;DHT22;38405;53.212;5.660;2022-10-15T13:25:44;15.20;99.90
52495;DHT22;38405;53.212;5.660;2022-10-15T13:28:29;15.20;99.90
52495;DHT22;38405;53.212;5.660;2022-10-15T13:30:55;15.10;99.90
52495;DHT22;38405;53.212;5.660;2022-10-15T13:33:21;15.10;99.90
52495;DHT22;38405;53.212;5.660;2022-10-15T13:35:47;15.10;99.90
52495;DHT22;38405;53.212;5.660;2022-10-15T13:38:23;15.10;99.90
52495;DHT22;38405;53.212;5.660;2022-10-15T13:40:50;15.00;99.90
52495;DHT22;38405;53.212;5.660;2022-10-15T13:43:19;15.00;99.90
52495;DHT22;38405;53.212;5.660;2022-10-15T13:45:52;15.00;99.90
52495;DHT22;38405;53.212;5.660;2022-10-15T13:48:20;15.10;99.90
52495;DHT22;38405;53.212;5.660;2022-10-15T13:50:52;15.10;99.90
52495;DHT22;38405;53.212;5.660;2022-10-15T13:53:24;15.20;99.90
52495;DHT22;38405;53.212;5.660;2022-10-15T13:55:53;15.30;99.90
52495;DHT22;38405;53.212;5.660;2022-10-15T13:58:20;15.20;99.90
52495;DHT22;38405;53.212;5.660;2022-10-15T14:00:54;15.20;99.90
52495;DHT22;38405;53.212;5.660;2022-10-15T14:03:23;15.30;99.90
52495;DHT22;38405;53.212;5.660;2022-10-15T14:05:52;15.20;99.90
52495;DHT22;38405;53.212;5.660;2022-10-15T14:08:20;15.10;99.90
52495;DHT22;38405;53.212;5.660;2022-10-15T14:10:47;15.20;99.90
52495;DHT22;38405;53.212;5.660;2022-10-15T14:13:14;15.10;99.90
52495;DHT22;38405;53.212;5.660;2022-10-15T14:15:45;15.20;99.90
52495;DHT22;38405;53.212;5.660;2022-10-15T14:18:13;15.00;99.90
52495;DHT22;38405;53.212;5.660;2022-10-15T14:20:45;15.00;99.90
52495;DHT22;38405;53.212;5.660;2022-10-15T14:23:16;15.00;99.90
52495;DHT22;38405;53.212;5.660;2022-10-15T14:25:44;15.00;99.90
52495;DHT22;38405;53.212;5.660;2022-10-15T14:28:20;15.00;99.90
52495;DHT22;38405;53.212;5.660;2022-10-15T14:30:46;15.00;99.90
52495;DHT22;38405;53.212;5.660;2022-10-15T14:38:46;15.10;99.90
52495;DHT22;38405;53.212;5.660;2022-10-15T14:41:23;15.10;99.90
52495;DHT22;38405;53.212;5.660;2022-10-15T14:44:25;15.20;99.90
52495;DHT22;38405;53.212;5.660;2022-10-15T14:47:03;15.20;99.90
52495;DHT22;38405;53.212;5.660;2022-10-15T14:49:33;15.40;99.90
52495;DHT22;38405;53.212;5.660;2022-10-15T14:52:05;15.70;99.90
52495;DHT22;38405;53.212;5.660;2022-10-15T14:54:35;15.60;99.90
52495;DHT22;38405;53.212;5.660;2022-10-15T14:57:02;15.60;99.90
52495;DHT22;38405;53.212;5.660;2022-10-15T14:59:31;15.50;99.90
52495;DHT22;38405;53.212;5.660;2022-10-15T15:02:00;15.70;99.90
52495;DHT22;38405;53.212;5.660;2022-10-15T15:04:38;15.70;99.90
52495;DHT22;38405;53.212;5.660;2022-10-15T15:07:15;15.70;99.90
52495;DHT22;38405;53.212;5.660;2022-10-15T15:09:41;15.60;99.90
52495;DHT22;38405;53.212;5.660;2022-10-15T15:12:17;15.50;99.90
52495;DHT22;38405;53.212;5.660;2022-10-15T15:14:44;15.40;99.90
52495;DHT22;38405;53.212;5.660;2022-10-15T15:17:29;15.40;99.90
52495;DHT22;38405;53.212;5.660;2022-10-15T15:19:56;15.30;99.90
52495;DHT22;38405;53.212;5.660;2022-10-15T15:22:30;15.30;99.90
52495;DHT22;38405;53.212;5.660;2022-10-15T15:24:58;15.30;99.90
52495;DHT22;38405;53.212;5.660;2022-10-15T15:27:27;15.30;99.90
52495;DHT22;38405;53.212;5.660;2022-10-15T15:29:54;15.30;99.90
52495;DHT22;38405;53.212;5.660;2022-10-15T15:32:21;15.30;99.90
52495;DHT22;38405;53.212;5.660;2022-10-15T15:34:47;15.50;99.90
52495;DHT22;38405;53.212;5.660;2022-10-15T15:37:15;15.20;99.90
52495;DHT22;38405;53.212;5.660;2022-10-15T15:39:42;15.10;99.90
52495;DHT22;38405;53.212;5.660;2022-10-15T15:42:19;15.10;99.90
52495;DHT22;38405;53.212;5.660;2022-10-15T15:44:46;15.00;99.90
52495;DHT22;38405;53.212;5.660;2022-10-15T15:47:12;15.00;99.90
52495;DHT22;38405;53.212;5.660;2022-10-15T15:49:38;14.90;99.90
52495;DHT22;38405;53.212;5.660;2022-10-15T15:52:05;14.90;99.90
52495;DHT22;38405;53.212;5.660;2022-10-15T15:54:31;14.80;99.90
52495;DHT22;38405;53.212;5.660;2022-10-15T15:56:56;14.70;99.90
52495;DHT22;38405;53.212;5.660;2022-10-15T15:59:22;14.70;99.90
52495;DHT22;38405;53.212;5.660;2022-10-15T16:01:47;14.60;99.90
52495;DHT22;38405;53.212;5.660;2022-10-15T16:04:13;14.60;99.90
52495;DHT22;38405;53.212;5.660;2022-10-15T16:06:39;14.50;99.90
52495;DHT22;38405;53.212;5.660;2022-10-15T16:09:06;14.60;99.90
52495;DHT22;38405;53.212;5.660;2022-10-15T16:11:32;14.40;99.90
52495;DHT22;38405;53.212;5.660;2022-10-15T16:13:58;14.40;99.90
52495;DHT22;38405;53.212;5.660;2022-10-15T16:16:24;14.40;99.90
52495;DHT22;38405;53.212;5.660;2022-10-15T16:18:50;14.40;99.90
52495;DHT22;38405;53.212;5.660;2022-10-15T16:21:23;14.20;99.90
52495;DHT22;38405;53.212;5.660;2022-10-15T16:23:49;14.40;99.90
52495;DHT22;38405;53.212;5.660;2022-10-15T16:26:15;14.10;99.90
52495;DHT22;38405;53.212;5.660;2022-10-15T16:28:41;14.20;99.90
52495;DHT22;38405;53.212;5.660;2022-10-15T16:33:46;14.00;99.90
52495;DHT22;38405;53.212;5.660;2022-10-15T16:36:12;13.90;99.90
52495;DHT22;38405;53.212;5.660;2022-10-15T16:38:40;13.80;99.90
52495;DHT22;38405;53.212;5.660;2022-10-15T16:41:07;13.80;99.90
52495;DHT22;38405;53.212;5.660;2022-10-15T16:43:33;13.80;99.90
52495;DHT22;38405;53.212;5.660;2022-10-15T16:45:59;13.70;99.90
52495;DHT22;38405;53.212;5.660;2022-10-15T16:48:27;13.70;99.90
52495;DHT22;38405;53.212;5.660;2022-10-15T16:51:22;13.60;99.90
52495;DHT22;38405;53.212;5.660;2022-10-15T16:53:49;13.50;99.90
52495;DHT22;38405;53.212;5.660;2022-10-15T16:56:21;13.50;99.90
52495;DHT22;38405;53.212;5.660;2022-10-15T16:58:47;13.40;99.90
52495;DHT22;38405;53.212;5.660;2022-10-15T17:01:15;13.40;99.90
52495;DHT22;38405;53.212;5.660;2022-10-15T17:03:42;13.30;99.90
52495;DHT22;38405;53.212;5.660;2022-10-15T17:06:13;13.20;99.90
52495;DHT22;38405;53.212;5.660;2022-10-15T17:08:46;13.30;99.90
52495;DHT22;38405;53.212;5.660;2022-10-15T17:13:42;13.10;99.90
52495;DHT22;38405;53.212;5.660;2022-10-15T17:16:20;13.10;99.90
52495;DHT22;38405;53.212;5.660;2022-10-15T17:18:47;13.00;99.90
52495;DHT22;38405;53.212;5.660;2022-10-15T17:21:14;13.00;99.90
52495;DHT22;38405;53.212;5.660;2022-10-15T17:23:41;13.00;99.90
52495;DHT22;38405;53.212;5.660;2022-10-15T17:26:14;12.90;99.90
52495;DHT22;38405;53.212;5.660;2022-10-15T17:28:42;12.90;99.90
52495;DHT22;38405;53.212;5.660;2022-10-15T17:31:10;12.90;99.90
52495;DHT22;38405;53.212;5.660;2022-10-15T17:33:38;12.90;99.90
52495;DHT22;38405;53.212;5.660;2022-10-15T17:36:06;12.80;99.90
52495;DHT22;38405;53.212;5.660;2022-10-15T17:38:32;12.80;99.90
52495;DHT22;38405;53.212;5.660;2022-10-15T17:40:58;12.80;99.90
52495;DHT22;38405;53.212;5.660;2022-10-15T17:43:25;12.80;99.90